White Bluff, TN (37187)

9:11 AM CDT on April 19, 2015 (GMT -0500)
On the Trace | | Change Station
CLOSE
Current Station
Personal Weather Station
Location: White Bluff, TN
Elevation: 805 ft
Nearby Weather Stations

Elev 805 ft 36.11 °N, 87.21 °W | Updated 2 minutes ago

Rain
Rain
64.7 °F
Feels Like 64.7 °F
N
2.3
Wind Variable Wind from West
Gusts 3.4 mph

Today
High -- | Low -- °F
--% Chance of Precip.
Yesterday
High -- | Low -- °F
Precip. -- in
6:10 AM 7:25 PM
New Moon, 1% visible
Pressure 29.63 in
Visibility 2.5 miles
Clouds Scattered Clouds 800 ft
Mostly Cloudy 1500 ft
Overcast 2200 ft
Dew Point 64 °F
Humidity 98%
Rainfall 0.92 in
Snow Depth Not available.
UV 1 out of 12
Pollen 3.20 out of 12
Air Quality Not available.
Flu Activity Sporadic
SPECI KBNA 191400Z 12005KT 2 1/2SM RA BR SCT008 BKN015 OVC022 19/18 A2963 RMK AO2 P0004

More Conditions Fewer Conditions

Pressure 29.63 in
Visibility 2.5 miles
Clouds Scattered Clouds 800 ft
Mostly Cloudy 1500 ft
Overcast 2200 ft
Dew Point 64 °F
Humidity 98%
Rainfall 0.92 in
Snow Depth Not available.
UV 1 out of 12
Pollen 3.20 out of 12
Air Quality Not available.
Flu Activity Sporadic
SPECI KBNA 191400Z 12005KT 2 1/2SM RA BR SCT008 BKN015 OVC022 19/18 A2963 RMK AO2 P0004

More Conditions Fewer Conditions

10-Day Weather Forecast

Almanac

Astronomy

Apr. 19, 2015 Rise Set
Actual Time
Civil Twilight
Nautical Twilight
Astronomical Twilight
Moon
Length of Visible Light
Length of Day
Tomorrow will be .
, % of the Moon is Illuminated

Today's Extremes

State Highs State Lows

Community

WunderPhotos

Upload Photos

1,814,807 photos uploaded!

WunderBlogs® & News

Nearby

Air Quality

  Air Quality AQ Index Pollutant
Not available.

Snow Depth

Station Depth Elevation

Earthquake Activity

City Distance Mag. Time & Date
Minimum magnitude displayed is 2.5.

Coastal Water Temperatures

Place Temperature

Stations

Nearby Weather Stations

Station Location Temp. Windchill Dew Point Humidity Wind Precip. Elev Updated Type